Terminal Aerodrome Forecast
Issued by NWS

Home | Current Version | Previous Version | Text Only | Print | Product List | Glossary On
Versions: 1 2 3 4 5 6 7 8 9 10 11 12 13 14 15 16 17 18 19 20 21 22 23 24 25 26 27 28
145
FTUS44 KLZK 240520
TAFLIT
TAF
KLIT 240520Z 2406/2506 18006KT P6SM FEW250
     FM241100 19010KT P6SM SCT025 SCT250
     FM241400 20011KT P6SM FEW018 BKN025 BKN250
     FM241700 24012G18KT P6SM BKN035 OVC250
     FM242000 28010KT P6SM FEW035 BKN250
     FM250000 30011KT P6SM FEW250=

USA.gov is the U.S. government's official web portal to all federal, state and local government web resources and services.